createdAt,value
2022-12-13T00:01:30.228Z,16.30
2022-12-13T00:03:59.578Z,18.85
2022-12-13T00:06:28.111Z,18.80
2022-12-13T00:08:56.108Z,16.58
2022-12-13T00:11:24.098Z,17.10
2022-12-13T00:13:53.329Z,15.77
2022-12-13T00:16:23.305Z,19.88
2022-12-13T00:18:52.570Z,20.45
2022-12-13T00:21:22.941Z,20.08
2022-12-13T00:23:50.854Z,18.63
2022-12-13T00:26:23.180Z,16.15
2022-12-13T00:28:54.031Z,18.20
2022-12-13T00:34:11.365Z,21.38
2022-12-13T00:36:39.029Z,18.10
2022-12-13T00:39:06.959Z,19.80
2022-12-13T00:41:36.123Z,19.80
2022-12-13T00:44:06.140Z,18.33
2022-12-13T00:46:33.954Z,19.77
2022-12-13T00:49:02.763Z,20.08
2022-12-13T00:51:32.509Z,17.25
2022-12-13T00:54:01.231Z,17.70
2022-12-13T00:56:31.008Z,15.98
2022-12-13T00:58:59.450Z,18.35
2022-12-13T01:01:31.080Z,21.85
2022-12-13T01:04:01.203Z,19.60
2022-12-13T01:06:30.885Z,16.30
2022-12-13T01:08:59.017Z,20.17
2022-12-13T01:11:27.092Z,19.67
2022-12-13T01:13:54.791Z,17.90
2022-12-13T01:16:22.540Z,18.50
2022-12-13T01:18:51.742Z,17.52
2022-12-13T01:21:22.227Z,18.30
2022-12-13T01:23:50.468Z,18.98
2022-12-13T01:26:20.625Z,21.50
2022-12-13T01:28:49.344Z,20.88
2022-12-13T01:31:20.072Z,21.08
2022-12-13T01:33:48.863Z,22.55
2022-12-13T01:36:20.127Z,16.73
2022-12-13T01:38:58.507Z,20.55
2022-12-13T01:41:28.188Z,17.63
2022-12-13T01:44:01.044Z,17.10
2022-12-13T01:46:29.323Z,19.38
2022-12-13T01:49:02.657Z,22.67
2022-12-13T01:51:36.806Z,19.17
2022-12-13T01:54:07.581Z,18.95
2022-12-13T01:56:39.930Z,23.05
2022-12-13T01:59:10.209Z,17.60
2022-12-13T02:01:38.644Z,24.42
2022-12-13T02:04:07.219Z,17.65
2022-12-13T02:06:38.497Z,21.70
2022-12-13T02:09:08.311Z,21.20
2022-12-13T02:11:37.965Z,21.65
2022-12-13T02:14:06.464Z,24.00
2022-12-13T02:16:45.643Z,21.10
2022-12-13T02:19:48.212Z,21.00
2022-12-13T02:22:41.819Z,18.95
2022-12-13T02:25:31.784Z,21.48
2022-12-13T02:28:30.646Z,20.52
2022-12-13T02:31:07.182Z,19.08
2022-12-13T02:33:43.914Z,25.50
2022-12-13T02:36:17.041Z,23.40
2022-12-13T02:38:53.383Z,19.52
2022-12-13T02:41:26.614Z,18.67
2022-12-13T02:44:01.333Z,20.55
2022-12-13T02:46:33.702Z,19.52
2022-12-13T02:49:01.861Z,24.30
2022-12-13T02:51:30.958Z,20.92
2022-12-13T02:53:58.672Z,22.02
2022-12-13T02:56:26.368Z,21.50
2022-12-13T02:58:57.103Z,18.73
2022-12-13T03:01:43.071Z,19.33
2022-12-13T03:04:26.282Z,21.70
2022-12-13T03:07:05.573Z,21.80
2022-12-13T03:09:45.254Z,19.50
2022-12-13T03:12:42.229Z,22.63
2022-12-13T03:15:17.669Z,20.85
2022-12-13T03:17:52.155Z,20.27
2022-12-13T03:20:24.585Z,19.08
2022-12-13T03:22:52.386Z,22.08
2022-12-13T03:25:30.569Z,23.88
2022-12-13T03:28:01.008Z,20.45
2022-12-13T03:30:29.781Z,18.67
2022-12-13T03:32:58.813Z,22.90
2022-12-13T03:35:34.319Z,20.23
2022-12-13T03:38:12.066Z,20.63
2022-12-13T03:40:40.136Z,20.38
2022-12-13T03:43:08.067Z,24.40
2022-12-13T03:45:35.746Z,21.63
2022-12-13T03:48:05.114Z,24.25
2022-12-13T03:50:32.749Z,20.55
2022-12-13T03:53:00.705Z,23.80
2022-12-13T03:55:29.074Z,18.98
2022-12-13T03:57:56.818Z,21.23
2022-12-13T04:00:24.819Z,20.77
2022-12-13T04:02:52.665Z,21.90
2022-12-13T04:05:21.702Z,20.50
2022-12-13T04:07:49.929Z,20.83
2022-12-13T04:10:26.237Z,24.60
2022-12-13T04:13:12.754Z,23.15
2022-12-13T04:15:48.932Z,21.23
2022-12-13T04:18:17.441Z,19.27
2022-12-13T04:20:47.569Z,20.70
2022-12-13T04:23:15.742Z,18.40
2022-12-13T04:25:44.993Z,21.52
2022-12-13T04:28:12.710Z,21.08
2022-12-13T04:30:53.791Z,23.27
2022-12-13T04:33:22.282Z,21.40
2022-12-13T04:35:52.412Z,20.08
2022-12-13T04:38:20.425Z,17.13
2022-12-13T04:40:48.149Z,20.75
2022-12-13T04:43:15.789Z,17.25
2022-12-13T04:45:43.599Z,23.13
2022-12-13T04:48:11.354Z,22.27
2022-12-13T04:50:39.021Z,23.40
2022-12-13T04:53:08.026Z,23.50
2022-12-13T04:55:35.690Z,21.67
2022-12-13T04:58:03.382Z,19.20
2022-12-13T05:00:31.094Z,20.33
2022-12-13T05:02:58.739Z,20.20
2022-12-13T05:05:26.409Z,26.38
2022-12-13T05:07:54.143Z,20.23
2022-12-13T05:10:36.190Z,21.60
2022-12-13T05:13:06.264Z,20.77
2022-12-13T05:15:34.319Z,22.60
2022-12-13T05:18:10.172Z,23.90
2022-12-13T05:20:39.190Z,24.38
2022-12-13T05:23:07.273Z,20.20
2022-12-13T05:25:37.496Z,22.33
2022-12-13T05:28:08.718Z,21.60
2022-12-13T05:30:53.801Z,20.02
2022-12-13T05:33:21.597Z,20.92
2022-12-13T05:35:49.352Z,21.63
2022-12-13T05:38:17.132Z,22.55
2022-12-13T05:40:46.104Z,23.13
2022-12-13T05:43:22.062Z,21.15
2022-12-13T05:45:50.257Z,20.27
2022-12-13T05:48:24.556Z,23.13
2022-12-13T05:51:10.206Z,24.60
2022-12-13T05:53:39.900Z,25.83
2022-12-13T05:56:10.432Z,22.42
2022-12-13T05:58:39.267Z,20.23
2022-12-13T06:01:08.226Z,21.73
2022-12-13T06:03:36.221Z,20.55
2022-12-13T06:06:04.613Z,20.77
2022-12-13T06:08:32.988Z,22.58
2022-12-13T06:11:11.116Z,23.10
2022-12-13T06:13:43.483Z,27.05
2022-12-13T06:16:22.548Z,23.17
2022-12-13T06:18:57.444Z,21.85
2022-12-13T06:24:11.583Z,19.65
2022-12-13T06:26:39.325Z,20.92
2022-12-13T06:29:08.502Z,19.98
2022-12-13T06:31:36.196Z,21.80
2022-12-13T06:34:14.380Z,22.48
2022-12-13T06:36:43.173Z,22.08
2022-12-13T06:39:16.923Z,21.18
2022-12-13T06:41:44.682Z,21.35
2022-12-13T06:44:13.744Z,19.58
2022-12-13T06:46:41.503Z,21.20
2022-12-13T06:49:09.303Z,23.42
2022-12-13T06:51:36.995Z,22.05
2022-12-13T06:54:05.117Z,22.55
2022-12-13T06:56:33.750Z,21.17
2022-12-13T06:59:02.300Z,22.17
2022-12-13T07:01:37.112Z,21.85
2022-12-13T07:04:29.481Z,24.08
2022-12-13T07:06:53.861Z,26.48
2022-12-13T07:09:21.557Z,25.73
2022-12-13T07:11:52.209Z,23.05
2022-12-13T07:14:20.401Z,22.77
2022-12-13T07:16:49.486Z,22.10
2022-12-13T07:19:23.889Z,23.60
2022-12-13T07:21:52.618Z,27.75
2022-12-13T07:24:20.415Z,24.88
2022-12-13T07:26:48.131Z,25.90
2022-12-13T07:29:22.538Z,23.55
2022-12-13T07:31:52.089Z,24.67
2022-12-13T07:34:19.862Z,29.30
2022-12-13T07:36:47.543Z,26.15
2022-12-13T07:39:15.222Z,23.10
2022-12-13T07:41:42.901Z,22.27
2022-12-13T07:44:10.567Z,23.73
2022-12-13T07:46:38.347Z,23.90
2022-12-13T07:49:07.463Z,28.92
2022-12-13T07:51:35.742Z,24.77
2022-12-13T07:54:06.252Z,26.65
2022-12-13T07:56:34.931Z,24.27
2022-12-13T07:59:02.610Z,28.65
2022-12-13T08:01:34.658Z,27.27
2022-12-13T08:04:03.028Z,26.85
2022-12-13T08:06:36.766Z,24.42
2022-12-13T08:09:05.736Z,25.55
2022-12-13T08:11:33.481Z,25.52
2022-12-13T08:14:01.184Z,25.02
2022-12-13T08:16:29.875Z,25.38
2022-12-13T08:19:02.594Z,26.67
2022-12-13T08:24:24.611Z,28.50
2022-12-13T08:26:52.720Z,26.42
2022-12-13T08:29:23.486Z,25.00
2022-12-13T08:32:01.993Z,27.40
2022-12-13T08:34:29.934Z,29.13
2022-12-13T08:37:01.515Z,26.63
2022-12-13T08:39:34.068Z,27.45
2022-12-13T08:42:17.123Z,33.28
2022-12-13T08:44:47.674Z,29.60
2022-12-13T08:47:24.158Z,26.48
2022-12-13T08:49:54.918Z,25.33
2022-12-13T08:52:24.600Z,30.75
2022-12-13T08:54:52.345Z,28.33
2022-12-13T08:57:20.041Z,29.52
2022-12-13T08:59:47.699Z,31.45
2022-12-13T09:02:16.213Z,26.33
2022-12-13T09:04:44.401Z,28.00
2022-12-13T09:07:12.157Z,33.90
2022-12-13T09:09:41.236Z,25.02
2022-12-13T09:12:10.934Z,29.35
2022-12-13T09:15:01.150Z,26.90
2022-12-13T09:17:36.448Z,31.65
2022-12-13T09:20:09.964Z,27.10
2022-12-13T09:23:01.654Z,25.08
2022-12-13T09:25:36.672Z,30.70
2022-12-13T09:28:06.816Z,27.40
2022-12-13T09:30:34.696Z,27.83
2022-12-13T09:33:28.865Z,31.23
2022-12-13T09:35:50.200Z,30.30
2022-12-13T09:38:17.876Z,29.67
2022-12-13T09:40:50.250Z,28.30
2022-12-13T09:43:32.611Z,27.00
2022-12-13T09:46:02.415Z,30.42
2022-12-13T09:48:30.246Z,29.35
2022-12-13T09:51:16.950Z,27.98
2022-12-13T09:53:51.698Z,32.78
2022-12-13T09:56:23.891Z,30.83
2022-12-13T09:58:53.748Z,31.52
2022-12-13T10:01:22.349Z,32.65
2022-12-13T10:03:55.146Z,33.33
2022-12-13T10:06:25.107Z,33.60
2022-12-13T10:08:57.821Z,32.63
2022-12-13T10:11:31.991Z,28.40
2022-12-13T10:14:05.495Z,32.90
2022-12-13T10:16:43.718Z,35.03
2022-12-13T10:19:29.199Z,30.40
2022-12-13T10:22:02.202Z,33.45
2022-12-13T10:24:36.951Z,32.65
2022-12-13T10:27:14.005Z,38.42
2022-12-13T10:30:05.607Z,34.55
2022-12-13T10:32:37.981Z,31.42
2022-12-13T10:35:21.557Z,33.10
2022-12-13T10:37:49.354Z,34.58
2022-12-13T10:40:32.304Z,32.10
2022-12-13T10:43:14.508Z,31.63
2022-12-13T10:45:43.147Z,31.33
2022-12-13T10:48:22.079Z,32.75
2022-12-13T10:51:02.883Z,31.15
2022-12-13T10:53:35.076Z,31.42
2022-12-13T10:56:04.029Z,33.97
2022-12-13T10:58:40.046Z,32.53
2022-12-13T11:01:21.256Z,33.42
2022-12-13T11:04:02.135Z,32.30
2022-12-13T11:06:43.652Z,29.85
2022-12-13T11:09:22.850Z,30.30
2022-12-13T11:11:57.997Z,36.90
2022-12-13T11:14:32.248Z,29.63
2022-12-13T11:17:10.021Z,30.42
2022-12-13T11:19:41.676Z,30.50
2022-12-13T11:22:11.689Z,29.98
2022-12-13T11:24:43.475Z,30.83
2022-12-13T11:27:48.147Z,30.17
2022-12-13T11:30:38.076Z,29.17
2022-12-13T11:33:22.522Z,28.58
2022-12-13T11:36:04.845Z,29.52
2022-12-13T11:38:39.479Z,33.05
2022-12-13T11:41:13.237Z,33.08
2022-12-13T11:44:03.929Z,32.35
2022-12-13T11:46:41.708Z,30.20
2022-12-13T11:49:17.955Z,32.05
2022-12-13T11:51:51.671Z,27.83
2022-12-13T11:54:25.733Z,30.25
2022-12-13T11:57:00.643Z,30.65
2022-12-13T11:59:40.032Z,30.58
2022-12-13T12:02:17.722Z,32.63
2022-12-13T12:04:51.556Z,26.60
2022-12-13T12:07:33.545Z,32.53
2022-12-13T12:10:15.495Z,32.03
2022-12-13T12:12:48.294Z,26.25
2022-12-13T12:15:26.481Z,29.90
2022-12-13T12:17:56.572Z,34.55
2022-12-13T12:20:38.221Z,29.52
2022-12-13T12:23:18.994Z,25.77
2022-12-13T12:25:53.795Z,29.60
2022-12-13T12:28:34.461Z,31.38
2022-12-13T12:31:11.829Z,31.35
2022-12-13T12:33:50.168Z,26.58
2022-12-13T12:36:31.401Z,24.55
2022-12-13T12:39:35.372Z,25.42
2022-12-13T12:42:19.959Z,24.67
2022-12-13T12:45:03.682Z,24.40
2022-12-13T12:48:26.342Z,25.52
2022-12-13T12:53:29.425Z,27.08
2022-12-13T12:56:09.580Z,24.08
2022-12-13T12:58:46.659Z,26.15
2022-12-13T13:03:49.245Z,27.77
2022-12-13T13:06:22.780Z,24.20
2022-12-13T13:08:56.723Z,27.13
2022-12-13T13:11:26.278Z,27.17
2022-12-13T13:14:08.196Z,25.48
2022-12-13T13:16:38.437Z,29.90
2022-12-13T13:19:07.097Z,30.40
2022-12-13T13:21:48.167Z,26.50
2022-12-13T13:24:18.914Z,26.55
2022-12-13T13:26:48.451Z,26.05
2022-12-13T13:29:43.275Z,25.48
2022-12-13T13:32:32.458Z,22.20
2022-12-13T13:35:50.912Z,31.13
2022-12-13T13:38:50.816Z,26.08
2022-12-13T13:41:57.015Z,23.23
2022-12-13T13:45:06.688Z,24.90
2022-12-13T13:47:43.036Z,24.55
2022-12-13T13:50:49.801Z,33.00
2022-12-13T13:53:50.804Z,23.83
2022-12-13T13:56:44.246Z,22.73
2022-12-13T13:59:51.978Z,20.20
2022-12-13T14:02:45.800Z,22.70
2022-12-13T14:05:49.310Z,23.45
2022-12-13T14:08:43.575Z,25.50
2022-12-13T14:11:50.521Z,19.98
2022-12-13T14:14:54.366Z,23.63
2022-12-13T14:18:11.719Z,20.77
2022-12-13T14:20:58.856Z,22.58
2022-12-13T14:23:39.309Z,19.88
2022-12-13T14:26:19.743Z,22.60
2022-12-13T14:28:52.894Z,22.55
2022-12-13T14:31:25.032Z,23.33
2022-12-13T14:33:54.310Z,23.98
2022-12-13T14:36:28.451Z,21.98
2022-12-13T14:39:03.681Z,21.13
2022-12-13T14:41:32.096Z,17.63
2022-12-13T14:46:57.035Z,25.63
2022-12-13T14:49:27.420Z,22.52
2022-12-13T14:52:01.344Z,18.45
2022-12-13T14:54:37.764Z,20.33
2022-12-13T14:57:05.762Z,21.75
2022-12-13T14:59:34.297Z,21.77
2022-12-13T15:02:05.250Z,22.77
2022-12-13T15:04:35.734Z,21.88
2022-12-13T15:07:08.398Z,22.48
2022-12-13T15:09:38.171Z,20.42
2022-12-13T15:12:14.775Z,19.90
2022-12-13T15:14:59.647Z,21.02
2022-12-13T15:17:34.686Z,21.35
2022-12-13T15:20:03.665Z,23.02
2022-12-13T15:22:31.404Z,23.67
2022-12-13T15:24:59.599Z,22.52
2022-12-13T15:27:27.932Z,21.05
2022-12-13T15:29:56.161Z,20.92
2022-12-13T15:32:24.173Z,22.25
2022-12-13T15:34:53.289Z,21.55
2022-12-13T15:37:30.441Z,23.13
2022-12-13T15:40:01.723Z,22.92
2022-12-13T15:42:33.241Z,22.58
2022-12-13T15:45:03.758Z,21.40
2022-12-13T15:47:31.601Z,24.05
2022-12-13T15:50:02.803Z,22.52
2022-12-13T15:52:36.559Z,25.67
2022-12-13T15:55:28.772Z,21.67
2022-12-13T15:57:58.707Z,22.35
2022-12-13T16:00:30.353Z,25.67
2022-12-13T16:03:09.104Z,21.05
2022-12-13T16:05:41.374Z,22.85
2022-12-13T16:08:24.994Z,18.80
2022-12-13T16:10:53.942Z,18.55
2022-12-13T16:13:26.838Z,24.00
2022-12-13T16:15:59.870Z,23.52
2022-12-13T16:18:44.033Z,20.63
2022-12-13T16:21:14.342Z,19.40
2022-12-13T16:23:48.775Z,22.40
2022-12-13T16:26:22.910Z,19.10
2022-12-13T16:28:50.649Z,22.13
2022-12-13T16:31:21.220Z,21.35
2022-12-13T16:33:49.048Z,23.35
2022-12-13T16:36:18.498Z,20.33
2022-12-13T16:38:46.177Z,19.63
2022-12-13T16:41:14.684Z,18.45
2022-12-13T16:43:51.836Z,17.33
2022-12-13T16:47:12.292Z,20.15
2022-12-13T16:49:19.441Z,25.33
2022-12-13T16:51:49.211Z,20.98
2022-12-13T16:54:18.040Z,21.23
2022-12-13T16:56:45.762Z,20.70
2022-12-13T16:59:15.249Z,19.63
2022-12-13T17:01:43.539Z,19.40
2022-12-13T17:04:18.036Z,22.55
2022-12-13T17:06:49.188Z,25.20
2022-12-13T17:09:17.297Z,20.80
2022-12-13T17:11:45.107Z,20.80
2022-12-13T17:14:12.815Z,21.42
2022-12-13T17:16:40.562Z,19.70
2022-12-13T17:19:08.304Z,19.48
2022-12-13T17:21:35.993Z,21.10
2022-12-13T17:24:05.723Z,19.75
2022-12-13T17:26:33.438Z,19.67
2022-12-13T17:29:01.348Z,19.27
2022-12-13T17:31:34.964Z,19.00
2022-12-13T17:34:03.702Z,20.75
2022-12-13T17:36:32.096Z,20.45
2022-12-13T17:38:59.865Z,17.70
2022-12-13T17:41:28.928Z,18.92
2022-12-13T17:43:59.543Z,24.77
2022-12-13T17:46:27.313Z,17.42
2022-12-13T17:48:55.027Z,22.23
2022-12-13T17:51:22.769Z,21.70
2022-12-13T17:53:50.433Z,18.60
2022-12-13T17:56:19.739Z,20.52
2022-12-13T17:58:49.136Z,18.27
2022-12-13T18:01:19.569Z,20.80
2022-12-13T18:03:48.834Z,19.90
2022-12-13T18:06:17.041Z,20.05
2022-12-13T18:08:45.893Z,20.60
2022-12-13T18:14:04.478Z,17.85
2022-12-13T18:16:36.834Z,19.38
2022-12-13T18:19:07.366Z,22.52
2022-12-13T18:21:36.848Z,17.80
2022-12-13T18:24:05.745Z,21.23
2022-12-13T18:26:34.162Z,18.50
2022-12-13T18:29:03.772Z,21.15
2022-12-13T18:31:31.575Z,26.88
2022-12-13T18:33:59.436Z,17.73
2022-12-13T18:36:27.662Z,21.50
2022-12-13T18:38:55.602Z,16.15
2022-12-13T18:41:24.911Z,21.08
2022-12-13T18:43:59.167Z,20.08
2022-12-13T18:46:30.703Z,18.13
2022-12-13T18:48:59.150Z,17.20
2022-12-13T18:51:27.186Z,20.20
2022-12-13T18:53:56.098Z,16.58
2022-12-13T18:56:24.322Z,18.40
2022-12-13T18:58:52.426Z,18.10
2022-12-13T19:01:21.130Z,17.85
2022-12-13T19:03:50.621Z,18.63
2022-12-13T19:06:20.420Z,16.80
2022-12-13T19:08:49.469Z,19.60
2022-12-13T19:11:17.405Z,17.33
2022-12-13T19:13:45.265Z,20.13
2022-12-13T19:16:14.993Z,16.60
2022-12-13T19:18:43.398Z,19.60
2022-12-13T19:21:15.591Z,22.60
2022-12-13T19:23:43.337Z,17.70
2022-12-13T19:26:14.002Z,21.20
2022-12-13T19:28:42.962Z,18.40
2022-12-13T19:31:12.467Z,19.83
2022-12-13T19:33:40.516Z,17.25
2022-12-13T19:36:09.390Z,18.70
2022-12-13T19:38:38.571Z,20.80
2022-12-13T19:41:10.785Z,16.58
2022-12-13T19:43:38.557Z,20.40
2022-12-13T19:46:06.827Z,19.63
2022-12-13T19:48:37.482Z,17.60
2022-12-13T19:51:06.937Z,19.00
2022-12-13T19:53:35.638Z,16.15
2022-12-13T19:56:09.676Z,21.85
2022-12-13T19:58:37.739Z,17.85
2022-12-13T20:01:07.261Z,18.08
2022-12-13T20:03:35.656Z,18.77
2022-12-13T20:06:04.915Z,18.83
2022-12-13T20:08:32.925Z,17.55
2022-12-13T20:11:02.137Z,18.35
2022-12-13T20:13:31.225Z,19.08
2022-12-13T20:15:59.194Z,20.50
2022-12-13T20:18:27.377Z,17.70
2022-12-13T20:21:12.127Z,19.20
2022-12-13T20:23:40.846Z,21.85
2022-12-13T20:26:12.147Z,15.05
2022-12-13T20:28:41.988Z,17.58
2022-12-13T20:31:12.135Z,16.65
2022-12-13T20:33:41.777Z,17.15
2022-12-13T20:36:27.751Z,15.80
2022-12-13T20:38:57.017Z,16.15
2022-12-13T20:41:26.611Z,20.80
2022-12-13T20:43:57.325Z,16.33
2022-12-13T20:46:25.902Z,19.80
2022-12-13T20:48:55.252Z,17.45
2022-12-13T20:51:25.420Z,16.92
2022-12-13T20:53:53.908Z,18.92
2022-12-13T20:56:23.963Z,21.45
2022-12-13T20:58:52.079Z,19.08
2022-12-13T21:01:22.924Z,22.17
2022-12-13T21:03:50.767Z,18.50
2022-12-13T21:06:18.445Z,17.52
2022-12-13T21:08:55.271Z,17.17
2022-12-13T21:11:25.767Z,18.40
2022-12-13T21:13:55.647Z,18.42
2022-12-13T21:16:26.290Z,18.25
2022-12-13T21:18:55.247Z,21.35
2022-12-13T21:21:23.558Z,17.20
2022-12-13T21:23:51.860Z,15.70
2022-12-13T21:26:19.811Z,16.92
2022-12-13T21:28:47.563Z,15.20
2022-12-13T21:31:15.473Z,13.82
2022-12-13T21:33:44.557Z,19.15
2022-12-13T21:36:14.388Z,20.35
2022-12-13T21:38:42.999Z,16.67
2022-12-13T21:41:12.561Z,17.60
2022-12-13T21:43:41.659Z,16.48
2022-12-13T21:46:11.035Z,14.00
2022-12-13T21:48:40.864Z,19.50
2022-12-13T21:51:12.950Z,15.00
2022-12-13T21:53:40.918Z,15.75
2022-12-13T21:56:27.587Z,14.38
2022-12-13T21:59:12.973Z,17.57
2022-12-13T22:02:03.137Z,16.52
2022-12-13T22:04:31.547Z,14.68
2022-12-13T22:07:01.450Z,18.77
2022-12-13T22:09:29.422Z,14.40
2022-12-13T22:11:57.609Z,15.73
2022-12-13T22:14:25.322Z,17.45
2022-12-13T22:16:53.245Z,16.20
2022-12-13T22:19:20.989Z,15.13
2022-12-13T22:21:48.728Z,15.63
2022-12-13T22:24:18.731Z,14.68
2022-12-13T22:26:46.434Z,14.18
2022-12-13T22:29:14.278Z,13.05
2022-12-13T22:31:42.178Z,14.55
2022-12-13T22:34:10.209Z,13.90
2022-12-13T22:36:37.943Z,15.35
2022-12-13T22:39:06.877Z,14.43
2022-12-13T22:41:35.982Z,13.82
2022-12-13T22:44:03.704Z,14.77
2022-12-13T22:46:31.425Z,13.73
2022-12-13T22:48:59.096Z,14.13
2022-12-13T22:51:26.809Z,15.43
2022-12-13T22:53:54.518Z,13.90
2022-12-13T22:56:24.132Z,15.68
2022-12-13T22:58:56.058Z,13.43
2022-12-13T23:01:26.860Z,14.13
2022-12-13T23:03:54.847Z,12.98
2022-12-13T23:06:24.734Z,13.30
2022-12-13T23:08:54.837Z,12.88
2022-12-13T23:11:40.926Z,12.23
2022-12-13T23:14:11.778Z,14.45
2022-12-13T23:16:39.641Z,12.70
2022-12-13T23:19:40.470Z,13.05
2022-12-13T23:21:57.763Z,11.07
2022-12-13T23:24:25.732Z,12.15
2022-12-13T23:26:53.449Z,13.27
2022-12-13T23:29:22.497Z,12.43
2022-12-13T23:31:50.279Z,14.05
2022-12-13T23:34:17.960Z,12.75
2022-12-13T23:36:45.650Z,11.77
2022-12-13T23:39:13.337Z,12.27
2022-12-13T23:41:41.004Z,14.82
2022-12-13T23:44:08.768Z,15.30
2022-12-13T23:46:38.053Z,14.32
2022-12-13T23:49:07.085Z,13.60
2022-12-13T23:51:37.790Z,11.65
2022-12-13T23:54:06.033Z,14.65
2022-12-13T23:56:33.730Z,12.85
2022-12-13T23:59:01.435Z,12.20
